Maintenance on CanadaBuys

SAP Ariba will be down for scheduled maintenance at the times listed below. We apologize for any inconvenience. 

  • SAP Ariba on Saturday, April 13 from 7:00 pm until 11:00 pm (Eastern Time)   

Tender opportunities

Browse the list of tender opportunities and sign up for notifications to stay up to date. To download contracting information posted on CanadaBuys and contract history: 


Notice categories:

10 of 26695
List of tender notices. The columns are sortable in ascending and descending order.
Title Category Open/amendment date Closing date Organization
Science Vessel Charter(s): Information Session on Fisheries and Oceans… Services 2020/03/26
Amended
2020/03/31 Fisheries and Oceans Canada
Science Vessel Charter(s): Information Session on Fisheries and Oceans… Services 2020/03/26
Amended
2020/03/30 Fisheries and Oceans Canada
"CARPET CLEANING SERVICES, for Fisheries and Oceans Canada, at the… Services 2014/06/03
Amended
2014/06/25 Fisheries and Oceans Canada
SBIPS - ERP/CRM - Industry Canada Services 2014/12/30 2015/01/19 Industry Canada
Hosting Services of Ocean Navigator Instance for the Department of… Services related to goods 2024/01/31
Amended
2024/01/31 Fisheries and Oceans Canada
Vessel and Crew to Support Fisheries and Oceans Canada – Fall 2017… Services 2017/09/25 2017/10/10 Fisheries and Oceans Canada
Vessel and Crew to Support Fisheries and Oceans Canada – Fall 2017… Services 2017/10/13 2017/10/18 Fisheries and Oceans Canada
TBIPS - Technical Architect - Intermediate - Industry Canada Services 2014/06/09 2014/06/24 Industry Canada
TBIPS - A.7 Programmer Analyst - Intermediate - Industry Canada Services 2014/07/29 2014/08/14 Industry Canada
TBIPS - A.7 Programmer Analyst - Senior - Industry Canada Services 2015/02/11 2015/02/25 Industry Canada
Displaying 1 - 10 of
10 of 64760
64760
List of award notices. The columns are sortable in ascending and descending order.
Title Category Award/amendment date Closing date Organization
OCEAN PROBES (TEMPERATURE, DEPTH, SALINITY) Goods 2016/12/21 N/A Fisheries and Oceans Canada
OCEAN PROBES (TEMPERATURE, DEPTH, SALINITY) Goods 2014/12/23 N/A Fisheries and Oceans Canada
OCEAN PROBES (TEMPERATURE, DEPTH, SALINITY) Goods 2019/03/12 N/A Fisheries and Oceans Canada
OCEAN PROBES (TEMPERATURE, DEPTH, SALINITY) Goods 2018/02/19 N/A Fisheries and Oceans Canada
OCEAN PROBES (TEMPERATURE, DEPTH, SALINITY) Goods 2015/03/06 N/A Fisheries and Oceans Canada
OCEAN PROBES (TEMPERATURE, DEPTH, SALINITY) Goods 2021/12/07 N/A Fisheries and Oceans Canada
OCEAN PROBES (TEMPERATURE, DEPTH, SALINITY) Goods 2018/01/26 N/A Fisheries and Oceans Canada
OCEAN PROBES (TEMPERATURE, DEPTH, SALINITY) Goods 2019/02/22 N/A Fisheries and Oceans Canada
OCEAN PROBES (TEMPERATURE, DEPTH, SALINITY) Goods 2019/01/23 N/A Fisheries and Oceans Canada
"CARPET CLEANING SERVICES, for Fisheries and Oceans Canada, at the… Services 2014/07/11 N/A Fisheries and Oceans Canada
50 of 267553
List of contract history information. The columns are sortable in ascending and descending order.
Company name Contract number Organization Award/amendment date Contract / Amendment value
INDUSTRIES OCEAN INC F7049-200038/003/MD Fisheries and Oceans Canada, Fisheries… 2023/12/21 CAD 20,037.00
INDUSTRIES OCEAN INC F7049-200038/003/MD Fisheries and Oceans Canada, Fisheries… 2023/12/22 CAD 163,647.00
INDUSTRIES OCEAN INC F7049-200038/003/MD Fisheries and Oceans Canada, Fisheries… 2023/11/02 CAD 13,564.00
INDUSTRIES OCEAN INC F7049-200038/003/MD Fisheries and Oceans Canada 2024/03/19 CAD -20,068.00
INDUSTRIES OCEAN INC F7049-200038/003/MD Fisheries and Oceans Canada 2024/03/01 CAD 41,356.00
INDUSTRIES OCEAN INC F7049-200038/003/MD Fisheries and Oceans Canada 2022/11/22 CAD 40,806.00
INDUSTRIES OCEAN INC F7049-200038/003/MD Fisheries and Oceans Canada 2022/08/23 CAD 12,316.00
INDUSTRIES OCEAN INC F7049-200038/003/MD Fisheries and Oceans Canada 2022/07/21 CAD -9,030.00
INDUSTRIES OCEAN INC F7047-170070/003/ERD Fisheries and Oceans Canada 2022/06/21 CAD 4,829,466.00
INDUSTRIES OCEAN INC F7049-200038/003/MD Fisheries and Oceans Canada 2022/03/17 CAD 48,391.00
INDUSTRIES OCEAN INC F7049-200038/003/MD Fisheries and Oceans Canada 2022/01/31 CAD 53,913.00
INDUSTRIES OCEAN INC F3065-190368/001/QCV Fisheries and Oceans Canada 2020/08/27 CAD 517,388.00
INDUSTRIES OCEAN INC F3065-190368/001/QCV Fisheries and Oceans Canada 2020/02/04 CAD 15,983.00
INDUSTRIES OCEAN INC F5561-142801/004/HAL Fisheries and Oceans Canada 2019/12/02 CAD 0.00
INDUSTRIES OCEAN INC F2599-170124/001/MD Fisheries and Oceans Canada 2018/10/23 CAD 249,166.00
INDUSTRIES OCEAN INC F7049-200038/003/MD Fisheries and Oceans Canada 2024/02/14 CAD 11,871.00
INDUSTRIES OCEAN INC F7049-200038/003/MD Fisheries and Oceans Canada 2024/02/01 CAD 50,565.00
INDUSTRIES OCEAN INC F7049-200038/003/MD Fisheries and Oceans Canada 2024/01/23 CAD 241,223.00
INDUSTRIES OCEAN INC F7049-200038/003/MD Fisheries and Oceans Canada 2023/10/19 CAD -3,738.00
INDUSTRIES OCEAN INC F7049-200038/003/MD Fisheries and Oceans Canada 2023/10/19 CAD 73,113.00
INDUSTRIES OCEAN INC F7049-200038/003/MD Fisheries and Oceans Canada 2023/08/30 CAD 13,774.00
INDUSTRIES OCEAN INC F7049-200038/003/MD Fisheries and Oceans Canada 2023/08/23 CAD 6,865.00
INDUSTRIES OCEAN INC F7049-200038/003/MD Fisheries and Oceans Canada 2023/07/18 CAD 11,543.00
INDUSTRIES OCEAN INC F7049-200038/003/MD Fisheries and Oceans Canada 2023/07/06 CAD 40,101.00
INDUSTRIES OCEAN INC F7049-200038/003/MD Fisheries and Oceans Canada 2023/05/12 CAD 25,208.00
INDUSTRIES OCEAN INC F7049-200038/003/MD Fisheries and Oceans Canada 2023/05/02 CAD 53,769.00
INDUSTRIES OCEAN INC F7049-200038/003/MD Fisheries and Oceans Canada 2023/03/29 CAD 91,261.00
INDUSTRIES OCEAN INC F7047-170070/003/ERD Fisheries and Oceans Canada 2023/03/29 CAD 4,829,466.00
INDUSTRIES OCEAN INC F7047-170070/003/ERD Fisheries and Oceans Canada 2023/03/28 CAD 4,829,466.00
INDUSTRIES OCEAN INC F7049-200038/003/MD Fisheries and Oceans Canada 2023/02/14 CAD 36,138.00
INDUSTRIES OCEAN INC F7049-200038/003/MD Fisheries and Oceans Canada 2022/12/08 CAD 39,495.00
INDUSTRIES OCEAN INC F7049-200038/003/MD Fisheries and Oceans Canada 2022/08/05 CAD 88,281.00
INDUSTRIES OCEAN INC F7049-200038/003/MD Fisheries and Oceans Canada 2022/04/20 CAD 23,324.00
INDUSTRIES OCEAN INC F7047-170070/003/ERD Fisheries and Oceans Canada 2022/02/03 CAD 620,492.00
INDUSTRIES OCEAN INC F5561-142801/004/HAL Fisheries and Oceans Canada 2021/11/26 CAD 0.00
INDUSTRIES OCEAN INC F7047-170070/003/ERD Fisheries and Oceans Canada 2021/10/20 CAD 49,936.00
INDUSTRIES OCEAN INC F7049-200038/003/MD Fisheries and Oceans Canada 2021/10/05 CAD 17,326,717.00
INDUSTRIES OCEAN INC F3065-190368/001/QCV Fisheries and Oceans Canada 2021/01/13 CAD -26,130.00
INDUSTRIES OCEAN INC F3065-190368/001/QCV Fisheries and Oceans Canada 2020/09/16 CAD 67,421.00
INDUSTRIES OCEAN INC F7047-170070/003/ERD Fisheries and Oceans Canada 2020/09/01 CAD 4,159,038.00
INDUSTRIES OCEAN INC F3065-190368/001/QCV Fisheries and Oceans Canada 2020/05/05 CAD 39,788.00
INDUSTRIES OCEAN INC F3065-190368/001/QCV Fisheries and Oceans Canada 2020/03/27 CAD -3,924.00
INDUSTRIES OCEAN INC F3065-190368/001/QCV Fisheries and Oceans Canada 2019/11/29 CAD 268,956.00
INDUSTRIES OCEAN INC F2599-170124/001/MD Fisheries and Oceans Canada 2018/03/25 CAD 128,517.00
INDUSTRIES OCEAN INC F2599-170124/001/MD Fisheries and Oceans Canada 2017/11/22 CAD 675,476.00
INDUSTRIES OCEAN INC F7044-150043/001/ML Fisheries and Oceans Canada 2017/02/28 CAD 8,281.00
INDUSTRIES OCEAN INC F7044-150043/001/ML Fisheries and Oceans Canada 2016/11/02 CAD 120,989.00
INDUSTRIES OCEAN INC F3084-18N106/001/QCL Fisheries and Oceans Canada 2019/02/20 CAD 84,577.00
INDUSTRIES OCEAN INC F3004-18N121/001/QCL Fisheries and Oceans Canada 2018/10/19 CAD 11,465.00
INDUSTRIES OCEAN INC F3004-18N121/001/QCL Fisheries and Oceans Canada 2018/09/24 CAD 101,357.00

Some helpful information

Download the mobile app

Access SAP Ariba from your mobile device.

Download the SAP Ariba app on Google Play
Download the SAP Ariba app on the App Store

Register your business to view and bid on tender opportunities.

Get an overview of our policies and guidelines, procurement process, and more.

Find out how to prepare for buying for or selling to the Government of Canada.

Date modified: